Time;durP1;ratioP1;P1;durP2;ratioP2;P2;SDS_P1;SDS_P2;PMS_P1;PMS_P2;Temp;Humidity;BMP_temperature;BMP_pressure;BME280_temperature;BME280_humidity;BME280_pressure;Samples;Min_cycle;Max_cycle;Signal;HPM_P1;HPM_P2
2022/03/06 00:00:26;;;;;;;31.40;16.52;;;5.10;99.90;;;;;;5110310;22;1206242;-65
2022/03/06 00:02:27;;;;;;;35.58;18.92;;;5.00;99.90;;;;;;5163996;22;20125;-66
2022/03/06 00:04:27;;;;;;;33.25;17.38;;;4.80;99.90;;;;;;5161532;23;20080;-66
2022/03/06 00:06:28;;;;;;;30.88;16.33;;;4.60;99.90;;;;;;5162408;22;20432;-66
2022/03/06 00:08:28;;;;;;;31.02;16.80;;;4.50;99.90;;;;;;5164292;22;20027;-65
2022/03/06 00:10:30;;;;;;;34.40;18.80;;;4.40;99.90;;;;;;5163087;22;20008;-66
2022/03/06 00:12:30;;;;;;;32.60;18.05;;;4.30;99.90;;;;;;5164222;22;20015;-65
2022/03/06 00:14:31;;;;;;;28.65;15.50;;;4.20;99.90;;;;;;5164043;22;20437;-65
2022/03/06 00:16:31;;;;;;;27.85;15.07;;;4.30;99.90;;;;;;5163107;22;20027;-65
2022/03/06 00:18:35;;;;;;;29.08;15.48;;;4.30;99.90;;;;;;5163464;22;20034;-65
2022/03/06 00:20:36;;;;;;;29.27;14.68;;;4.30;99.90;;;;;;5162626;22;20051;-66
2022/03/06 00:22:37;;;;;;;29.05;14.60;;;4.30;99.90;;;;;;5162936;22;20008;-66
2022/03/06 00:24:37;;;;;;;28.17;15.25;;;4.40;99.90;;;;;;5163255;22;20024;-66
2022/03/06 00:26:38;;;;;;;28.85;15.27;;;4.40;99.90;;;;;;5162655;22;20340;-66
2022/03/06 00:28:39;;;;;;;28.45;15.40;;;4.50;99.90;;;;;;5164098;22;20018;-66
2022/03/06 00:30:41;;;;;;;28.42;14.77;;;4.50;99.90;;;;;;5163092;22;20015;-66
2022/03/06 00:32:42;;;;;;;26.95;15.00;;;4.50;99.90;;;;;;5163132;22;20019;-66
2022/03/06 00:34:43;;;;;;;30.13;16.40;;;4.60;99.90;;;;;;5164110;22;20005;-66
2022/03/06 00:36:43;;;;;;;27.75;15.88;;;4.60;99.90;;;;;;5162835;22;20031;-66
2022/03/06 00:38:44;;;;;;;30.33;15.23;;;4.60;99.90;;;;;;5163829;22;20054;-65
2022/03/06 00:40:45;;;;;;;29.85;16.48;;;4.60;99.90;;;;;;5162519;22;20013;-65
2022/03/06 00:42:46;;;;;;;30.17;16.05;;;4.50;99.90;;;;;;5162912;22;20034;-67
2022/03/06 00:44:46;;;;;;;29.98;16.70;;;4.50;99.90;;;;;;5164938;22;20012;-66
2022/03/06 00:46:47;;;;;;;24.90;15.10;;;4.50;99.90;;;;;;5163709;22;20447;-66
2022/03/06 00:48:48;;;;;;;28.10;15.60;;;4.50;99.90;;;;;;5163424;22;20007;-66
2022/03/06 00:50:49;;;;;;;36.08;18.83;;;4.50;99.90;;;;;;5163509;22;20009;-66
2022/03/06 00:52:49;;;;;;;33.00;17.52;;;4.30;99.90;;;;;;5164567;22;20034;-66
2022/03/06 00:54:50;;;;;;;33.60;18.27;;;4.10;99.90;;;;;;5164201;22;20016;-66
2022/03/06 00:56:51;;;;;;;32.38;17.95;;;4.00;99.90;;;;;;5163337;22;20028;-66
2022/03/06 00:58:51;;;;;;;30.27;15.70;;;4.00;99.90;;;;;;5164935;22;20012;-66
2022/03/06 01:00:52;;;;;;;29.95;15.65;;;4.00;99.90;;;;;;5162170;22;20085;-66
2022/03/06 01:02:53;;;;;;;29.45;15.90;;;4.00;99.90;;;;;;5163695;22;20476;-66
2022/03/06 01:04:53;;;;;;;33.50;15.98;;;3.90;99.90;;;;;;5163713;22;20015;-66
2022/03/06 01:06:54;;;;;;;28.88;15.68;;;3.90;99.90;;;;;;5160700;23;20047;-66
2022/03/06 01:08:54;;;;;;;26.70;14.75;;;4.00;99.90;;;;;;5164652;22;20012;-67
2022/03/06 01:10:55;;;;;;;30.88;15.98;;;4.00;99.90;;;;;;5163279;22;20005;-66
2022/03/06 01:12:57;;;;;;;32.10;17.00;;;4.00;99.90;;;;;;5164131;22;20012;-66
2022/03/06 01:14:59;;;;;;;34.58;17.23;;;4.00;99.90;;;;;;5163922;22;20012;-65
2022/03/06 01:16:59;;;;;;;30.63;16.50;;;4.00;99.90;;;;;;5162471;22;20012;-66
2022/03/06 01:19:00;;;;;;;30.20;15.48;;;4.10;99.90;;;;;;5163852;22;20075;-65
2022/03/06 01:21:01;;;;;;;29.40;15.95;;;4.00;99.90;;;;;;5162901;22;20008;-65
2022/03/06 01:23:02;;;;;;;26.10;14.63;;;4.10;99.90;;;;;;5163889;22;20031;-65
2022/03/06 01:25:05;;;;;;;30.30;16.65;;;4.10;99.90;;;;;;5164221;22;20024;-66
2022/03/06 01:27:05;;;;;;;29.23;15.85;;;4.10;99.90;;;;;;5163025;22;20019;-65
2022/03/06 01:29:06;;;;;;;28.10;15.52;;;4.10;99.90;;;;;;5163331;22;20091;-66
2022/03/06 01:31:06;;;;;;;29.02;15.45;;;4.10;99.90;;;;;;5160603;23;20012;-66
2022/03/06 01:33:07;;;;;;;29.55;15.88;;;4.10;99.90;;;;;;5163123;22;20320;-66
2022/03/06 01:35:08;;;;;;;29.48;15.98;;;4.20;99.90;;;;;;5163720;22;20004;-66
2022/03/06 01:37:09;;;;;;;27.15;15.55;;;4.20;99.90;;;;;;5163574;22;20562;-66
2022/03/06 01:39:09;;;;;;;30.85;17.02;;;4.20;99.90;;;;;;5160093;22;20004;-65
2022/03/06 01:41:10;;;;;;;28.23;15.25;;;4.20;99.90;;;;;;5164381;22;20016;-66
2022/03/06 01:43:11;;;;;;;30.33;16.63;;;4.20;99.90;;;;;;5165271;22;20050;-66
2022/03/06 01:45:12;;;;;;;32.00;16.88;;;4.20;99.90;;;;;;5164101;22;20012;-67
2022/03/06 01:47:13;;;;;;;29.23;14.95;;;4.20;99.90;;;;;;5164950;22;20043;-66
2022/03/06 01:49:15;;;;;;;28.63;15.65;;;4.20;99.90;;;;;;5165276;22;20062;-66
2022/03/06 01:51:16;;;;;;;26.35;14.18;;;4.20;99.90;;;;;;5164363;22;20021;-66
2022/03/06 01:53:16;;;;;;;26.30;14.45;;;4.10;99.90;;;;;;5164787;22;20351;-67
2022/03/06 01:55:19;;;;;;;26.83;15.52;;;4.10;99.90;;;;;;5165199;22;20008;-65
2022/03/06 01:57:19;;;;;;;27.10;15.27;;;4.20;99.90;;;;;;5165967;22;20031;-66
2022/03/06 01:59:23;;;;;;;28.30;14.45;;;4.20;99.90;;;;;;5166171;22;20492;-66
2022/03/06 02:01:24;;;;;;;28.98;15.60;;;4.20;99.90;;;;;;5164672;22;20448;-66
2022/03/06 02:03:24;;;;;;;32.00;15.05;;;4.20;99.90;;;;;;5164892;22;20019;-65
2022/03/06 02:05:25;;;;;;;26.35;14.65;;;4.20;99.90;;;;;;5164937;22;20018;-66
2022/03/06 02:07:27;;;;;;;26.08;14.05;;;4.20;99.90;;;;;;5168122;22;20417;-66
2022/03/06 02:09:28;;;;;;;28.05;15.43;;;4.20;99.90;;;;;;5167924;22;20336;-65
2022/03/06 02:11:29;;;;;;;28.85;15.25;;;4.20;99.90;;;;;;5167464;22;20361;-65
2022/03/06 02:13:29;;;;;;;29.77;15.57;;;4.20;99.90;;;;;;5165978;22;20019;-66
2022/03/06 02:15:31;;;;;;;30.80;16.48;;;4.20;99.90;;;;;;5163995;22;20004;-65
2022/03/06 02:17:32;;;;;;;30.52;16.35;;;4.00;99.90;;;;;;5162662;22;20356;-66
2022/03/06 02:20:03;;;;;;;32.22;16.98;;;4.00;99.90;;;;;;5164829;22;20008;-66
2022/03/06 02:22:04;;;;;;;30.15;16.45;;;3.80;99.90;;;;;;5163556;22;20062;-65
2022/03/06 02:24:05;;;;;;;28.58;15.50;;;3.80;99.90;;;;;;5165045;22;20083;-65
2022/03/06 02:26:07;;;;;;;29.92;15.55;;;3.70;99.90;;;;;;5163926;22;20015;-65
2022/03/06 02:28:10;;;;;;;33.15;16.48;;;3.70;99.90;;;;;;5164365;22;20050;-66
2022/03/06 02:30:17;;;;;;;30.50;17.27;;;3.70;99.90;;;;;;5163380;22;20008;-66
2022/03/06 02:32:19;;;;;;;30.80;16.33;;;3.50;99.90;;;;;;5164102;22;20443;-66
2022/03/06 02:34:20;;;;;;;;;;;3.50;99.90;;;;;;5165198;22;20012;-66
2022/03/06 02:36:20;;;;;;;26.75;15.40;;;3.40;99.90;;;;;;5161666;23;19919;-66
2022/03/06 02:38:21;;;;;;;29.50;15.48;;;3.40;99.90;;;;;;5164400;22;20058;-65
2022/03/06 02:40:22;;;;;;;25.85;14.25;;;3.40;99.90;;;;;;5164686;22;20004;-65
2022/03/06 02:42:33;;;;;;;27.25;15.27;;;3.40;99.90;;;;;;5165746;22;20004;-66
2022/03/06 02:44:33;;;;;;;28.10;14.57;;;3.40;99.90;;;;;;5164637;22;20318;-66
2022/03/06 02:46:34;;;;;;;27.15;14.93;;;3.50;99.90;;;;;;5163659;22;20066;-65
2022/03/06 02:48:35;;;;;;;27.88;14.63;;;3.50;99.90;;;;;;5164329;22;20013;-66
2022/03/06 02:50:38;;;;;;;29.40;15.57;;;3.50;99.90;;;;;;5163568;22;20012;-65
2022/03/06 02:52:38;;;;;;;27.77;15.25;;;3.50;99.90;;;;;;5164748;22;20019;-65
2022/03/06 02:54:39;;;;;;;29.83;15.75;;;3.50;99.90;;;;;;5162341;22;20075;-65
2022/03/06 02:56:40;;;;;;;30.23;15.98;;;3.60;99.90;;;;;;5161341;22;20526;-66
2022/03/06 02:58:42;;;;;;;27.75;15.13;;;3.50;99.90;;;;;;5162650;22;20008;-65
2022/03/06 03:00:42;;;;;;;29.95;15.95;;;3.60;99.90;;;;;;5159479;23;20023;-66
2022/03/06 03:02:43;;;;;;;33.67;17.67;;;3.50;99.90;;;;;;5163175;22;20316;-66
2022/03/06 03:04:44;;;;;;;31.58;16.92;;;3.50;99.90;;;;;;5164274;22;20008;-66
2022/03/06 03:06:49;;;;;;;31.05;16.67;;;3.50;99.90;;;;;;5163629;22;20564;-66
2022/03/06 03:08:50;;;;;;;29.17;15.93;;;3.50;99.90;;;;;;5163616;22;20004;-65
2022/03/06 03:10:51;;;;;;;29.10;15.43;;;3.40;99.90;;;;;;5164313;22;20344;-65
2022/03/06 03:12:52;;;;;;;33.55;17.05;;;3.40;99.90;;;;;;5164056;22;20375;-66
2022/03/06 03:14:52;;;;;;;29.95;16.00;;;3.40;99.90;;;;;;5164786;22;20323;-66
2022/03/06 03:16:53;;;;;;;32.15;16.25;;;3.40;99.90;;;;;;5163856;22;20095;-65
2022/03/06 03:18:54;;;;;;;30.73;16.40;;;3.40;99.90;;;;;;5164784;22;20421;-65
2022/03/06 03:20:54;;;;;;;30.25;15.77;;;3.40;99.90;;;;;;5164092;22;20004;-65
2022/03/06 03:22:55;;;;;;;28.58;15.73;;;3.40;99.90;;;;;;5164973;22;20051;-65
2022/03/06 03:24:55;;;;;;;27.52;15.18;;;3.40;99.90;;;;;;5163868;22;20004;-65
2022/03/06 03:26:56;;;;;;;30.73;16.17;;;3.40;99.90;;;;;;5163142;22;20023;-65
2022/03/06 03:28:57;;;;;;;28.10;14.88;;;3.40;99.90;;;;;;5164480;22;20012;-65
2022/03/06 03:30:57;;;;;;;28.35;15.85;;;3.40;99.90;;;;;;5163707;22;20390;-65
2022/03/06 03:32:58;;;;;;;26.58;15.68;;;3.40;99.90;;;;;;5164180;22;20012;-65
2022/03/06 03:34:58;;;;;;;26.30;15.18;;;3.40;99.90;;;;;;5164486;22;20012;-65
2022/03/06 03:36:59;;;;;;;28.15;15.20;;;3.40;99.90;;;;;;5163629;22;20016;-65
2022/03/06 03:39:00;;;;;;;23.65;13.57;;;3.40;99.90;;;;;;5164149;22;20001;-65
2022/03/06 03:41:01;;;;;;;26.15;14.32;;;3.40;99.90;;;;;;5163192;22;20008;-65
2022/03/06 03:43:02;;;;;;;30.23;16.35;;;3.50;99.90;;;;;;5163650;22;20482;-65
2022/03/06 03:45:04;;;;;;;29.60;16.17;;;3.40;99.90;;;;;;5163990;22;20012;-67
2022/03/06 03:47:06;;;;;;;30.20;16.23;;;3.40;99.90;;;;;;5163444;22;20019;-65
2022/03/06 03:49:06;;;;;;;27.10;15.95;;;3.40;99.90;;;;;;5163592;22;20035;-65
2022/03/06 03:51:07;;;;;;;28.63;15.02;;;3.40;99.90;;;;;;5162894;22;20039;-66
2022/03/06 03:53:08;;;;;;;29.00;15.60;;;3.40;99.90;;;;;;5163909;22;20031;-66
2022/03/06 03:55:08;;;;;;;25.80;14.82;;;3.40;99.90;;;;;;5163155;22;20091;-66
2022/03/06 03:57:09;;;;;;;27.77;14.40;;;3.40;99.90;;;;;;5163364;22;20016;-66
2022/03/06 03:59:10;;;;;;;28.23;15.15;;;3.40;99.90;;;;;;5162611;22;20008;-67
2022/03/06 04:01:10;;;;;;;26.50;15.25;;;3.40;99.90;;;;;;5164284;22;20031;-65
2022/03/06 04:03:13;;;;;;;30.42;15.90;;;3.40;99.90;;;;;;5161461;23;20058;-66
2022/03/06 04:05:13;;;;;;;28.88;16.38;;;3.40;99.90;;;;;;5139109;23;20019;-65
2022/03/06 04:07:14;;;;;;;28.80;15.65;;;3.30;99.90;;;;;;5168918;22;20079;-65
2022/03/06 04:09:14;;;;;;;29.70;15.85;;;3.30;99.90;;;;;;5170100;22;20004;-65
2022/03/06 04:11:15;;;;;;;26.85;15.70;;;3.30;99.90;;;;;;5168276;22;20009;-65
2022/03/06 04:13:16;;;;;;;28.25;14.88;;;3.30;99.90;;;;;;5168539;22;20012;-65
2022/03/06 04:15:16;;;;;;;28.30;15.27;;;3.30;99.90;;;;;;5163339;22;20009;-65
2022/03/06 04:17:17;;;;;;;26.73;15.57;;;3.30;99.90;;;;;;5163589;22;20015;-65
2022/03/06 04:19:18;;;;;;;27.05;13.95;;;3.30;99.90;;;;;;5163639;22;20000;-65
2022/03/06 04:21:18;;;;;;;27.67;15.55;;;3.20;99.90;;;;;;5162845;22;20008;-65
2022/03/06 04:23:19;;;;;;;26.58;14.40;;;3.30;99.90;;;;;;5163269;22;20000;-66
2022/03/06 04:25:19;;;;;;;29.58;15.60;;;3.20;99.90;;;;;;5163812;22;20371;-66
2022/03/06 04:27:20;;;;;;;27.17;14.30;;;3.20;99.90;;;;;;5163712;22;20016;-66
2022/03/06 04:29:21;;;;;;;30.95;16.38;;;3.20;99.90;;;;;;5164976;22;20012;-65
2022/03/06 04:31:21;;;;;;;27.33;16.05;;;3.20;99.90;;;;;;5160801;23;20016;-66
2022/03/06 04:33:23;;;;;;;26.98;15.18;;;3.10;99.90;;;;;;5165166;22;20004;-66
2022/03/06 04:35:23;;;;;;;29.13;15.45;;;3.10;99.90;;;;;;5163796;22;20008;-66
2022/03/06 04:37:24;;;;;;;26.48;14.48;;;3.10;99.90;;;;;;5164834;22;20015;-65
2022/03/06 04:39:25;;;;;;;25.67;14.32;;;3.10;99.90;;;;;;5164578;22;20511;-66
2022/03/06 04:41:25;;;;;;;29.02;14.93;;;3.20;99.90;;;;;;5163889;22;20062;-66
2022/03/06 04:43:26;;;;;;;30.45;15.68;;;3.10;99.90;;;;;;5164451;22;20338;-66
2022/03/06 04:45:27;;;;;;;25.90;14.63;;;3.10;99.90;;;;;;5163736;22;20012;-65
2022/03/06 04:47:27;;;;;;;26.45;14.63;;;3.10;99.90;;;;;;5164234;22;20341;-65
2022/03/06 04:49:28;;;;;;;24.75;13.57;;;3.00;99.90;;;;;;5164261;22;20406;-65
2022/03/06 04:51:29;;;;;;;29.35;15.68;;;3.00;99.90;;;;;;5163403;22;20008;-65
2022/03/06 04:53:31;;;;;;;30.50;15.32;;;2.90;99.90;;;;;;5164643;22;20011;-65
2022/03/06 04:55:31;;;;;;;27.23;14.80;;;2.90;99.90;;;;;;5163193;22;20058;-65
2022/03/06 04:57:32;;;;;;;25.75;13.73;;;3.00;99.90;;;;;;5164031;22;20367;-65
2022/03/06 04:59:33;;;;;;;26.55;14.23;;;3.00;99.90;;;;;;5164093;22;20055;-65
2022/03/06 05:01:33;;;;;;;26.85;14.95;;;3.00;99.90;;;;;;5161221;22;20020;-65
2022/03/06 05:03:34;;;;;;;26.85;14.73;;;3.00;99.90;;;;;;5163822;22;20015;-65
2022/03/06 05:05:35;;;;;;;26.33;14.70;;;2.90;99.90;;;;;;5162591;22;20012;-65
2022/03/06 05:07:36;;;;;;;25.40;14.23;;;2.90;99.90;;;;;;5163366;22;20012;-65
2022/03/06 05:09:37;;;;;;;26.80;14.80;;;2.90;99.90;;;;;;5163004;22;20019;-65
2022/03/06 05:11:37;;;;;;;27.30;14.70;;;2.90;99.90;;;;;;5162366;22;20039;-65
2022/03/06 05:13:38;;;;;;;27.40;15.25;;;2.90;99.90;;;;;;5164298;22;20004;-65
2022/03/06 05:15:39;;;;;;;27.15;14.80;;;2.90;99.90;;;;;;5163523;22;20074;-65
2022/03/06 05:17:40;;;;;;;26.85;14.40;;;2.90;99.90;;;;;;5164694;22;20023;-65
2022/03/06 05:19:41;;;;;;;25.47;14.50;;;2.80;99.90;;;;;;5164483;22;20008;-66
2022/03/06 05:21:42;;;;;;;29.23;15.52;;;2.80;99.90;;;;;;5161967;23;20293;-65
2022/03/06 05:23:42;;;;;;;29.85;15.18;;;2.80;99.90;;;;;;5165441;22;20019;-65
2022/03/06 05:25:44;;;;;;;28.83;15.38;;;2.80;99.90;;;;;;5164425;22;20336;-66
2022/03/06 05:27:45;;;;;;;27.40;14.40;;;2.80;99.90;;;;;;5138836;23;20004;-66
2022/03/06 05:29:46;;;;;;;26.83;13.48;;;2.70;99.90;;;;;;5140083;22;20012;-66
2022/03/06 05:31:46;;;;;;;26.13;14.38;;;2.70;99.90;;;;;;5139654;23;20013;-65
2022/03/06 05:33:47;;;;;;;28.42;14.57;;;2.80;99.90;;;;;;5140264;23;20012;-65
2022/03/06 05:35:48;;;;;;;25.40;14.05;;;2.80;99.90;;;;;;5138980;23;20012;-65
2022/03/06 05:37:48;;;;;;;26.08;13.43;;;2.70;99.90;;;;;;5139846;23;20119;-65
2022/03/06 05:39:49;;;;;;;25.55;13.30;;;2.70;99.90;;;;;;5139984;23;20040;-65
2022/03/06 05:41:49;;;;;;;25.02;12.90;;;2.80;99.90;;;;;;5140763;22;20075;-66
2022/03/06 05:43:50;;;;;;;27.70;14.90;;;2.70;99.90;;;;;;5141538;22;20383;-65
2022/03/06 05:45:52;;;;;;;25.55;13.15;;;2.70;99.90;;;;;;5140404;22;20013;-66
2022/03/06 05:47:52;;;;;;;22.80;13.03;;;2.70;99.90;;;;;;5137671;23;20004;-65
2022/03/06 05:49:53;;;;;;;23.58;13.27;;;2.70;99.90;;;;;;5137758;23;20239;-66
2022/03/06 05:51:53;;;;;;;25.58;13.95;;;2.70;99.90;;;;;;5140045;22;20009;-66
2022/03/06 05:53:54;;;;;;;24.92;14.13;;;2.60;99.90;;;;;;5140827;22;20418;-65
2022/03/06 05:55:55;;;;;;;25.63;14.93;;;2.60;99.90;;;;;;5139705;22;20021;-65
2022/03/06 05:57:56;;;;;;;25.75;14.48;;;2.60;99.90;;;;;;5137721;23;20028;-65
2022/03/06 05:59:56;;;;;;;23.35;13.40;;;2.60;99.90;;;;;;5144487;22;20020;-65
2022/03/06 06:01:57;;;;;;;22.33;12.95;;;2.60;99.90;;;;;;5164342;22;20318;-66
2022/03/06 06:03:59;;;;;;;24.35;13.38;;;2.60;99.90;;;;;;5165283;22;20012;-65
2022/03/06 06:05:59;;;;;;;26.03;13.93;;;2.60;99.90;;;;;;5163976;22;20012;-65
2022/03/06 06:08:00;;;;;;;26.63;14.55;;;2.60;99.90;;;;;;5165012;22;20382;-66
2022/03/06 06:10:02;;;;;;;24.58;14.50;;;2.50;99.90;;;;;;5165258;22;22654;-65
2022/03/06 06:12:04;;;;;;;23.05;13.60;;;2.50;99.90;;;;;;5164377;22;20004;-65
2022/03/06 06:14:04;;;;;;;24.30;13.63;;;2.50;99.90;;;;;;5164542;22;20016;-66
2022/03/06 06:16:05;;;;;;;26.92;14.40;;;2.60;99.90;;;;;;5163449;22;20083;-65
2022/03/06 06:18:06;;;;;;;24.98;14.02;;;2.50;99.90;;;;;;5164733;22;20019;-65
2022/03/06 06:20:07;;;;;;;22.98;12.82;;;2.50;99.90;;;;;;5163681;22;20004;-66
2022/03/06 06:22:08;;;;;;;25.00;14.48;;;2.50;99.90;;;;;;5163309;22;20071;-65
2022/03/06 06:24:10;;;;;;;25.98;13.40;;;2.40;99.90;;;;;;5163285;22;20035;-65
2022/03/06 06:26:12;;;;;;;24.55;13.27;;;2.50;99.90;;;;;;5162684;22;20494;-65
2022/03/06 06:28:12;;;;;;;25.23;14.43;;;2.50;99.90;;;;;;5164122;22;20019;-64
2022/03/06 06:30:13;;;;;;;24.63;13.85;;;2.50;99.90;;;;;;5162878;22;20080;-64
2022/03/06 06:32:14;;;;;;;21.33;12.45;;;2.50;99.90;;;;;;5163643;22;20048;-65
2022/03/06 06:34:15;;;;;;;22.40;13.43;;;2.50;99.90;;;;;;5163907;22;20008;-64
2022/03/06 06:36:16;;;;;;;25.45;13.85;;;2.50;99.90;;;;;;5163066;22;20016;-65
2022/03/06 06:38:17;;;;;;;23.13;13.35;;;2.50;99.90;;;;;;5163842;22;20012;-65
2022/03/06 06:40:18;;;;;;;24.88;13.20;;;2.50;99.90;;;;;;5163468;22;20466;-65
2022/03/06 06:42:19;;;;;;;19.63;12.18;;;2.50;99.90;;;;;;5163830;22;20012;-65
2022/03/06 06:44:20;;;;;;;21.45;12.60;;;2.50;99.90;;;;;;5163808;22;20050;-65
2022/03/06 06:46:20;;;;;;;23.23;13.07;;;2.50;99.90;;;;;;5162092;22;20008;-65
2022/03/06 06:48:21;;;;;;;23.48;12.50;;;2.60;99.90;;;;;;5164936;22;20019;-65
2022/03/06 06:50:22;;;;;;;19.08;11.68;;;2.60;99.90;;;;;;5163772;22;20011;-65
2022/03/06 06:52:22;;;;;;;22.10;12.52;;;2.60;99.90;;;;;;5164714;22;20086;-65
2022/03/06 06:54:23;;;;;;;18.10;11.02;;;2.70;99.90;;;;;;5164547;22;20015;-65
2022/03/06 06:56:23;;;;;;;23.10;13.30;;;2.70;99.90;;;;;;5163647;22;20079;-65
2022/03/06 06:58:24;;;;;;;21.67;12.65;;;2.60;99.90;;;;;;5165176;22;20012;-64
2022/03/06 07:00:25;;;;;;;21.45;12.57;;;2.70;99.90;;;;;;5163589;22;20095;-64
2022/03/06 07:02:25;;;;;;;21.02;12.20;;;2.70;99.90;;;;;;5164568;22;20444;-65
2022/03/06 07:04:26;;;;;;;22.95;13.10;;;2.80;99.90;;;;;;5164656;22;20032;-64
2022/03/06 07:06:26;;;;;;;20.52;12.32;;;2.90;99.90;;;;;;5163790;22;20023;-64
2022/03/06 07:08:27;;;;;;;21.63;12.90;;;3.10;99.90;;;;;;5163485;22;20383;-65
2022/03/06 07:10:28;;;;;;;19.67;12.43;;;3.20;99.90;;;;;;5163555;22;20092;-65
2022/03/06 07:12:28;;;;;;;22.15;12.77;;;3.40;99.90;;;;;;5164547;22;20012;-65
2022/03/06 07:14:29;;;;;;;19.98;12.02;;;3.60;99.90;;;;;;5164471;22;20015;-65
2022/03/06 07:16:30;;;;;;;23.23;12.55;;;3.80;99.90;;;;;;5163173;22;20443;-65
2022/03/06 07:18:31;;;;;;;19.50;11.93;;;3.90;99.90;;;;;;5163743;22;20016;-64
2022/03/06 07:20:32;;;;;;;18.30;11.55;;;4.10;99.90;;;;;;5162015;22;20092;-65
2022/03/06 07:22:33;;;;;;;20.23;13.00;;;4.30;99.90;;;;;;5162888;22;20387;-65
2022/03/06 07:24:33;;;;;;;24.92;13.45;;;4.50;99.90;;;;;;5164062;22;20020;-65
2022/03/06 07:26:34;;;;;;;21.08;12.77;;;4.70;99.90;;;;;;5163041;22;20051;-63
2022/03/06 07:28:34;;;;;;;25.25;13.18;;;4.80;99.90;;;;;;5163271;22;20016;-65
2022/03/06 07:30:35;;;;;;;21.80;12.60;;;5.00;99.90;;;;;;5163061;22;20015;-65
2022/03/06 07:32:47;;;;;;;23.48;13.48;;;5.10;99.90;;;;;;5162897;22;20090;-65
2022/03/06 07:34:47;;;;;;;18.95;12.05;;;5.30;99.90;;;;;;5163365;22;20010;-65
2022/03/06 07:36:48;;;;;;;19.75;12.10;;;5.50;99.90;;;;;;5161801;22;20036;-65
2022/03/06 07:38:49;;;;;;;20.10;12.13;;;5.70;99.90;;;;;;5163524;22;20008;-65
2022/03/06 07:40:49;;;;;;;20.45;12.50;;;5.80;99.90;;;;;;5162102;22;20418;-66
2022/03/06 07:42:50;;;;;;;19.73;12.27;;;6.00;99.90;;;;;;5136501;23;20016;-65
2022/03/06 07:44:51;;;;;;;23.50;13.35;;;6.00;99.90;;;;;;5163362;22;20020;-65
2022/03/06 07:46:51;;;;;;;20.90;12.80;;;6.00;99.90;;;;;;5162069;22;20424;-65
2022/03/06 07:48:52;;;;;;;19.88;11.88;;;6.10;99.90;;;;;;5162706;22;20631;-65
2022/03/06 07:50:53;;;;;;;22.02;13.05;;;6.20;99.90;;;;;;5161943;22;20420;-66
2022/03/06 07:52:56;;;;;;;19.63;12.10;;;6.30;99.90;;;;;;5163042;22;20001;-66
2022/03/06 07:54:56;;;;;;;;;;;6.30;99.90;;;;;;5136924;23;20020;-66
2022/03/06 07:56:57;;;;;;;19.77;12.35;;;6.30;99.90;;;;;;5161950;22;20323;-66
2022/03/06 07:58:57;;;;;;;21.70;12.27;;;6.30;99.90;;;;;;5164380;22;20004;-66
2022/03/06 08:00:58;;;;;;;19.83;12.73;;;6.20;99.90;;;;;;5163085;22;20452;-66
2022/03/06 08:02:58;;;;;;;18.77;12.32;;;6.20;99.90;;;;;;5164138;22;20347;-66
2022/03/06 08:04:59;;;;;;;22.48;12.48;;;6.30;99.90;;;;;;5164089;22;20495;-66
2022/03/06 08:07:00;;;;;;;19.30;12.00;;;6.50;99.90;;;;;;5162967;22;20019;-65
2022/03/06 08:09:02;;;;;;;20.48;12.20;;;6.60;99.90;;;;;;5164528;22;20020;-66
2022/03/06 08:11:03;;;;;;;19.80;13.13;;;6.80;99.90;;;;;;5163208;22;20012;-66
2022/03/06 08:13:04;;;;;;;17.30;11.43;;;7.00;99.90;;;;;;5163575;22;20001;-66
2022/03/06 08:15:05;;;;;;;20.20;12.57;;;7.20;99.90;;;;;;5163785;22;20001;-66
2022/03/06 08:17:05;;;;;;;20.40;12.05;;;7.40;99.90;;;;;;5162809;22;20023;-66
2022/03/06 08:19:06;;;;;;;17.58;11.80;;;7.50;99.90;;;;;;5163556;22;20000;-66
2022/03/06 08:21:07;;;;;;;19.90;12.57;;;7.50;99.90;;;;;;5162708;22;20008;-65
2022/03/06 08:23:08;;;;;;;21.35;13.00;;;7.60;99.90;;;;;;5136502;23;20009;-66
2022/03/06 08:25:09;;;;;;;17.88;11.73;;;7.70;99.90;;;;;;5162422;22;20297;-66
2022/03/06 08:27:10;;;;;;;18.50;11.82;;;7.70;99.90;;;;;;5162961;22;20012;-65
2022/03/06 08:29:10;;;;;;;18.88;12.38;;;7.70;99.90;;;;;;5163214;22;20091;-66
2022/03/06 08:31:11;;;;;;;18.33;11.88;;;7.80;99.90;;;;;;5162046;22;20027;-65
2022/03/06 08:33:12;;;;;;;20.33;12.43;;;7.90;99.90;;;;;;5162186;22;20039;-65
2022/03/06 08:35:13;;;;;;;18.95;11.45;;;7.60;99.90;;;;;;5162409;22;20417;-67
2022/03/06 08:37:13;;;;;;;16.85;11.13;;;7.70;99.90;;;;;;5162479;22;20502;-66
2022/03/06 08:39:14;;;;;;;18.02;12.30;;;8.00;99.90;;;;;;5162798;22;20004;-65
2022/03/06 08:41:15;;;;;;;16.77;10.77;;;8.30;99.90;;;;;;5158773;22;20060;-66
2022/03/06 08:43:16;;;;;;;14.65;10.48;;;8.40;99.90;;;;;;5162894;22;20432;-66
2022/03/06 08:45:17;;;;;;;17.40;12.30;;;8.70;99.90;;;;;;5162260;22;20015;-66
2022/03/06 08:47:18;;;;;;;17.95;11.50;;;8.80;99.90;;;;;;5163453;22;20009;-66
2022/03/06 08:49:18;;;;;;;18.08;11.13;;;9.00;99.90;;;;;;5164607;22;20015;-66
2022/03/06 08:51:19;;;;;;;17.33;11.48;;;9.20;99.90;;;;;;5162227;22;20068;-66
2022/03/06 08:53:20;;;;;;;19.60;11.05;;;9.20;99.90;;;;;;5164845;22;20015;-65
2022/03/06 08:55:21;;;;;;;19.02;11.80;;;9.40;99.90;;;;;;5112478;23;20036;-66
2022/03/06 08:57:23;;;;;;;17.58;11.45;;;9.50;99.90;;;;;;5112951;23;20017;-66
2022/03/06 08:59:23;;;;;;;18.63;11.63;;;9.60;99.90;;;;;;5112709;23;20001;-67
2022/03/06 09:01:24;;;;;;;18.73;11.75;;;9.60;99.90;;;;;;5119162;23;20059;-65
2022/03/06 09:03:25;;;;;;;16.30;11.27;;;9.60;99.90;;;;;;5114726;23;20338;-66
2022/03/06 09:05:25;;;;;;;17.48;11.52;;;9.60;99.90;;;;;;5115166;23;20024;-65
2022/03/06 09:07:27;;;;;;;16.80;11.30;;;9.70;99.90;;;;;;5116575;23;20009;-66
2022/03/06 09:09:28;;;;;;;18.13;12.00;;;9.70;99.90;;;;;;5116003;23;20009;-66
2022/03/06 09:11:28;;;;;;;18.27;11.77;;;9.70;99.90;;;;;;5113899;23;20276;-65
2022/03/06 09:13:29;;;;;;;17.15;11.30;;;9.70;99.90;;;;;;5115973;23;20064;-66
2022/03/06 09:15:30;;;;;;;16.88;10.85;;;9.70;99.90;;;;;;5114892;23;20461;-66
2022/03/06 09:17:31;;;;;;;19.73;12.32;;;9.70;98.80;;;;;;5115144;23;20013;-65
2022/03/06 09:19:32;;;;;;;15.80;11.05;;;8.90;95.60;;;;;;5115684;23;20124;-65
2022/03/06 09:21:32;;;;;;;16.38;11.40;;;9.00;98.70;;;;;;5114528;23;20337;-65
2022/03/06 09:23:33;;;;;;;18.48;11.20;;;8.70;96.00;;;;;;5115303;23;20090;-65
2022/03/06 09:25:33;;;;;;;16.40;11.30;;;8.80;99.90;;;;;;5115078;23;20017;-65
2022/03/06 09:27:35;;;;;;;19.00;10.88;;;8.80;98.60;;;;;;5116036;23;20021;-65
2022/03/06 09:29:36;;;;;;;14.98;10.52;;;8.80;99.20;;;;;;5115417;23;20013;-65
2022/03/06 09:31:36;;;;;;;17.02;11.30;;;8.90;99.90;;;;;;5115647;23;20453;-65
2022/03/06 09:33:37;;;;;;;15.80;11.05;;;8.80;99.80;;;;;;5117782;23;20009;-65
2022/03/06 09:35:38;;;;;;;19.95;11.80;;;8.60;97.90;;;;;;5115253;23;20013;-65
2022/03/06 09:37:38;;;;;;;17.15;11.63;;;8.60;98.70;;;;;;5114339;23;20065;-65
2022/03/06 09:39:39;;;;;;;17.38;11.65;;;8.60;97.90;;;;;;5113854;23;20088;-65
2022/03/06 09:41:40;;;;;;;17.10;11.30;;;8.60;99.40;;;;;;5112539;23;20017;-65
2022/03/06 09:43:41;;;;;;;16.88;10.73;;;8.70;97.70;;;;;;5111556;23;20075;-65
2022/03/06 09:45:44;;;;;;;16.20;10.80;;;8.70;99.90;;;;;;5112425;23;20140;-65
2022/03/06 09:47:45;;;;;;;16.45;11.02;;;8.80;99.50;;;;;;5112684;23;20436;-65
2022/03/06 09:49:47;;;;;;;18.35;12.52;;;8.90;98.90;;;;;;5111497;23;20064;-65
2022/03/06 09:51:47;;;;;;;16.70;11.70;;;8.80;95.60;;;;;;5111768;23;20088;-65
2022/03/06 09:53:48;;;;;;;18.38;11.60;;;8.60;98.30;;;;;;5113570;23;20013;-65
2022/03/06 09:55:49;;;;;;;19.00;11.73;;;8.60;97.70;;;;;;5112199;23;20337;-66
2022/03/06 09:57:54;;;;;;;18.77;11.52;;;8.40;97.90;;;;;;5112774;23;20329;-65
2022/03/06 09:59:55;;;;;;;16.50;11.27;;;8.10;95.80;;;;;;5120437;23;20017;-65
2022/03/06 10:01:59;;;;;;;15.23;11.05;;;8.20;99.90;;;;;;5162959;23;20470;-65
2022/03/06 10:04:30;;;;;;;17.17;10.75;;;8.20;98.10;;;;;;5163387;23;20012;-65
2022/03/06 10:06:30;;;;;;;16.85;10.43;;;8.10;99.20;;;;;;5134424;23;20017;-65
2022/03/06 10:08:31;;;;;;;17.30;11.27;;;8.30;99.90;;;;;;5163166;23;20020;-65
2022/03/06 10:10:36;;;;;;;16.33;10.65;;;8.40;99.90;;;;;;5161590;23;20466;-65
2022/03/06 10:12:40;;;;;;;18.58;11.60;;;8.50;99.90;;;;;;5162388;23;20340;-65
2022/03/06 10:14:42;;;;;;;15.85;10.82;;;8.60;99.90;;;;;;5162741;23;20035;-65
2022/03/06 10:16:42;;;;;;;18.20;13.10;;;8.80;99.90;;;;;;5161602;23;20024;-65
2022/03/06 10:18:49;;;;;;;15.23;11.23;;;9.00;99.90;;;;;;5162099;23;20035;-65
2022/03/06 10:20:49;;;;;;;18.30;10.63;;;9.10;99.60;;;;;;5161672;23;20019;-65
2022/03/06 10:22:51;;;;;;;14.45;10.43;;;9.20;99.90;;;;;;5162557;23;20336;-65